sensor_id;sensor_type;location;lat;lon;timestamp;pressure;altitude;pressure_sealevel;temperature;humidity
64827;BME280;51265;53.972;12.286;2023-02-01T00:00:24;99888.06;;;2.79;100.00
64827;BME280;51265;53.972;12.286;2023-02-01T00:02:50;99880.47;;;2.86;100.00
64827;BME280;51265;53.972;12.286;2023-02-01T00:05:16;99888.41;;;2.93;100.00
64827;BME280;51265;53.972;12.286;2023-02-01T00:07:46;99877.25;;;2.94;100.00
64827;BME280;51265;53.972;12.286;2023-02-01T00:10:13;99863.63;;;2.89;100.00
64827;BME280;51265;53.972;12.286;2023-02-01T00:12:39;99865.25;;;2.80;100.00
64827;BME280;51265;53.972;12.286;2023-02-01T00:15:05;99847.53;;;2.72;100.00
64827;BME280;51265;53.972;12.286;2023-02-01T00:17:32;99861.38;;;2.71;100.00
64827;BME280;51265;53.972;12.286;2023-02-01T00:19:58;99860.56;;;2.70;100.00
64827;BME280;51265;53.972;12.286;2023-02-01T00:22:24;99865.41;;;2.63;100.00
64827;BME280;51265;53.972;12.286;2023-02-01T00:24:50;99864.06;;;2.61;100.00
64827;BME280;51265;53.972;12.286;2023-02-01T00:27:16;99848.22;;;2.47;100.00
64827;BME280;51265;53.972;12.286;2023-02-01T00:29:46;99852.56;;;2.48;100.00
64827;BME280;51265;53.972;12.286;2023-02-01T00:32:12;99854.72;;;2.46;100.00
64827;BME280;51265;53.972;12.286;2023-02-01T00:34:38;99845.47;;;2.42;100.00
64827;BME280;51265;53.972;12.286;2023-02-01T00:37:05;99848.19;;;2.42;100.00
64827;BME280;51265;53.972;12.286;2023-02-01T00:39:31;99846.56;;;2.41;100.00
64827;BME280;51265;53.972;12.286;2023-02-01T00:41:59;99857.41;;;2.41;100.00
64827;BME280;51265;53.972;12.286;2023-02-01T00:44:25;99860.75;;;2.54;100.00
64827;BME280;51265;53.972;12.286;2023-02-01T00:46:52;99878.47;;;2.66;100.00
64827;BME280;51265;53.972;12.286;2023-02-01T00:49:19;99872.22;;;2.61;100.00
64827;BME280;51265;53.972;12.286;2023-02-01T00:51:45;99871.09;;;2.57;100.00
64827;BME280;51265;53.972;12.286;2023-02-01T00:54:11;99864.00;;;2.50;100.00
64827;BME280;51265;53.972;12.286;2023-02-01T00:56:37;99872.63;;;2.42;100.00
64827;BME280;51265;53.972;12.286;2023-02-01T00:59:03;99877.00;;;2.43;100.00
64827;BME280;51265;53.972;12.286;2023-02-01T01:01:30;99871.00;;;2.41;100.00
64827;BME280;51265;53.972;12.286;2023-02-01T01:03:58;99882.91;;;2.30;100.00
64827;BME280;51265;53.972;12.286;2023-02-01T01:06:30;99878.53;;;2.24;100.00
64827;BME280;51265;53.972;12.286;2023-02-01T01:08:58;99880.31;;;2.08;100.00
64827;BME280;51265;53.972;12.286;2023-02-01T01:11:27;99887.03;;;2.00;100.00
64827;BME280;51265;53.972;12.286;2023-02-01T01:13:55;99877.22;;;1.94;100.00
64827;BME280;51265;53.972;12.286;2023-02-01T01:16:24;99900.88;;;1.99;100.00
64827;BME280;51265;53.972;12.286;2023-02-01T01:18:50;99895.78;;;2.08;100.00
64827;BME280;51265;53.972;12.286;2023-02-01T01:21:18;99892.00;;;2.09;100.00
64827;BME280;51265;53.972;12.286;2023-02-01T01:23:45;99898.53;;;2.13;100.00
64827;BME280;51265;53.972;12.286;2023-02-01T01:26:18;99907.56;;;2.18;100.00
64827;BME280;51265;53.972;12.286;2023-02-01T01:28:45;99903.50;;;2.21;100.00
64827;BME280;51265;53.972;12.286;2023-02-01T01:31:14;99907.88;;;2.22;100.00
64827;BME280;51265;53.972;12.286;2023-02-01T01:33:40;99908.44;;;2.29;100.00
64827;BME280;51265;53.972;12.286;2023-02-01T01:36:09;99911.72;;;2.31;100.00
64827;BME280;51265;53.972;12.286;2023-02-01T01:38:40;99905.81;;;2.39;100.00
64827;BME280;51265;53.972;12.286;2023-02-01T01:41:09;99915.88;;;2.44;100.00
64827;BME280;51265;53.972;12.286;2023-02-01T01:46:16;99920.84;;;2.57;100.00
64827;BME280;51265;53.972;12.286;2023-02-01T01:48:43;99902.63;;;2.58;100.00
64827;BME280;51265;53.972;12.286;2023-02-01T01:51:11;99906.41;;;2.52;100.00
64827;BME280;51265;53.972;12.286;2023-02-01T01:53:55;99890.66;;;2.59;100.00
64827;BME280;51265;53.972;12.286;2023-02-01T01:56:25;99899.69;;;2.64;100.00
64827;BME280;51265;53.972;12.286;2023-02-01T01:58:52;99892.66;;;2.68;100.00
64827;BME280;51265;53.972;12.286;2023-02-01T02:01:19;99876.06;;;2.70;100.00
64827;BME280;51265;53.972;12.286;2023-02-01T02:03:45;99882.06;;;2.72;100.00
64827;BME280;51265;53.972;12.286;2023-02-01T02:06:26;99879.34;;;2.72;100.00
64827;BME280;51265;53.972;12.286;2023-02-01T02:08:53;99866.28;;;2.74;100.00
64827;BME280;51265;53.972;12.286;2023-02-01T02:11:19;99874.72;;;2.72;100.00
64827;BME280;51265;53.972;12.286;2023-02-01T02:13:48;99873.13;;;2.82;100.00
64827;BME280;51265;53.972;12.286;2023-02-01T02:19:38;99864.69;;;2.83;100.00
64827;BME280;51265;53.972;12.286;2023-02-01T02:22:36;99854.38;;;2.90;100.00
64827;BME280;51265;53.972;12.286;2023-02-01T02:31:08;99841.38;;;3.03;100.00
64827;BME280;51265;53.972;12.286;2023-02-01T02:33:50;99840.28;;;3.04;100.00
64827;BME280;51265;53.972;12.286;2023-02-01T02:39:01;99856.50;;;2.78;100.00
64827;BME280;51265;53.972;12.286;2023-02-01T02:41:46;99881.81;;;2.26;100.00
64827;BME280;51265;53.972;12.286;2023-02-01T02:44:54;99875.00;;;1.86;100.00
64827;BME280;51265;53.972;12.286;2023-02-01T02:48:02;99902.63;;;1.78;100.00
64827;BME280;51265;53.972;12.286;2023-02-01T02:50:37;99899.88;;;1.73;100.00
64827;BME280;51265;53.972;12.286;2023-02-01T02:53:38;99890.56;;;1.64;100.00
64827;BME280;51265;53.972;12.286;2023-02-01T02:56:24;99882.16;;;1.65;100.00
64827;BME280;51265;53.972;12.286;2023-02-01T02:59:12;99892.19;;;1.65;100.00
64827;BME280;51265;53.972;12.286;2023-02-01T03:01:59;99921.53;;;1.68;100.00
64827;BME280;51265;53.972;12.286;2023-02-01T03:04:43;99845.47;;;1.63;100.00
64827;BME280;51265;53.972;12.286;2023-02-01T03:07:45;99846.00;;;1.60;100.00
64827;BME280;51265;53.972;12.286;2023-02-01T03:10:08;99840.88;;;1.63;100.00
64827;BME280;51265;53.972;12.286;2023-02-01T03:12:39;99841.69;;;1.64;100.00
64827;BME280;51265;53.972;12.286;2023-02-01T03:15:37;99848.44;;;1.61;100.00
64827;BME280;51265;53.972;12.286;2023-02-01T03:18:13;99845.47;;;1.63;100.00
64827;BME280;51265;53.972;12.286;2023-02-01T03:20:45;99852.50;;;1.59;100.00
64827;BME280;51265;53.972;12.286;2023-02-01T03:23:14;99844.97;;;1.66;100.00
64827;BME280;51265;53.972;12.286;2023-02-01T03:25:41;99847.13;;;1.64;100.00
64827;BME280;51265;53.972;12.286;2023-02-01T03:28:09;99838.25;;;1.73;100.00
64827;BME280;51265;53.972;12.286;2023-02-01T03:30:38;99841.78;;;1.74;100.00
64827;BME280;51265;53.972;12.286;2023-02-01T03:33:18;99837.50;;;1.83;100.00
64827;BME280;51265;53.972;12.286;2023-02-01T03:38:50;99854.97;;;1.92;100.00
64827;BME280;51265;53.972;12.286;2023-02-01T03:41:27;99852.28;;;1.97;100.00
64827;BME280;51265;53.972;12.286;2023-02-01T03:44:06;99849.59;;;2.03;100.00
64827;BME280;51265;53.972;12.286;2023-02-01T03:46:42;99855.03;;;2.08;100.00
64827;BME280;51265;53.972;12.286;2023-02-01T03:49:19;99850.19;;;2.10;100.00
64827;BME280;51265;53.972;12.286;2023-02-01T03:51:49;99854.59;;;2.21;100.00
64827;BME280;51265;53.972;12.286;2023-02-01T03:54:17;99844.00;;;2.19;100.00
64827;BME280;51265;53.972;12.286;2023-02-01T03:56:47;99839.38;;;2.20;100.00
64827;BME280;51265;53.972;12.286;2023-02-01T03:59:14;99826.84;;;2.14;100.00
64827;BME280;51265;53.972;12.286;2023-02-01T04:01:41;99827.41;;;2.21;100.00
64827;BME280;51265;53.972;12.286;2023-02-01T04:04:17;99833.94;;;2.20;100.00
64827;BME280;51265;53.972;12.286;2023-02-01T04:06:51;99828.59;;;2.35;100.00
64827;BME280;51265;53.972;12.286;2023-02-01T04:09:17;99836.47;;;2.37;100.00
64827;BME280;51265;53.972;12.286;2023-02-01T04:11:44;99822.06;;;2.36;100.00
64827;BME280;51265;53.972;12.286;2023-02-01T04:14:10;99821.84;;;2.43;100.00
64827;BME280;51265;53.972;12.286;2023-02-01T04:16:36;99810.19;;;2.47;100.00
64827;BME280;51265;53.972;12.286;2023-02-01T04:19:02;99806.38;;;2.54;100.00
64827;BME280;51265;53.972;12.286;2023-02-01T04:21:29;99822.75;;;2.69;100.00
64827;BME280;51265;53.972;12.286;2023-02-01T04:23:56;99813.25;;;2.71;100.00
64827;BME280;51265;53.972;12.286;2023-02-01T04:26:22;99813.00;;;2.83;100.00
64827;BME280;51265;53.972;12.286;2023-02-01T04:28:48;99801.59;;;2.81;100.00
64827;BME280;51265;53.972;12.286;2023-02-01T04:31:16;99806.47;;;2.79;100.00
64827;BME280;51265;53.972;12.286;2023-02-01T04:33:43;99805.41;;;2.80;100.00
64827;BME280;51265;53.972;12.286;2023-02-01T04:36:09;99801.03;;;2.84;100.00
64827;BME280;51265;53.972;12.286;2023-02-01T04:38:35;99788.53;;;2.83;100.00
64827;BME280;51265;53.972;12.286;2023-02-01T04:41:02;99782.56;;;2.76;100.00
64827;BME280;51265;53.972;12.286;2023-02-01T04:43:28;99779.84;;;2.76;100.00
64827;BME280;51265;53.972;12.286;2023-02-01T04:45:54;99786.34;;;2.75;100.00
64827;BME280;51265;53.972;12.286;2023-02-01T04:48:20;99787.44;;;2.79;100.00
64827;BME280;51265;53.972;12.286;2023-02-01T04:50:48;99781.47;;;2.82;100.00
64827;BME280;51265;53.972;12.286;2023-02-01T04:53:15;99768.41;;;2.84;100.00
64827;BME280;51265;53.972;12.286;2023-02-01T04:55:42;99772.50;;;2.87;100.00
64827;BME280;51265;53.972;12.286;2023-02-01T04:58:09;99764.63;;;2.80;100.00
64827;BME280;51265;53.972;12.286;2023-02-01T05:00:36;99766.25;;;2.86;100.00
64827;BME280;51265;53.972;12.286;2023-02-01T05:03:02;99754.81;;;2.84;100.00
64827;BME280;51265;53.972;12.286;2023-02-01T05:05:29;99757.56;;;2.89;100.00
64827;BME280;51265;53.972;12.286;2023-02-01T05:07:55;99759.19;;;2.95;100.00
64827;BME280;51265;53.972;12.286;2023-02-01T05:10:22;99758.94;;;3.02;100.00
64827;BME280;51265;53.972;12.286;2023-02-01T05:12:48;99751.88;;;3.01;100.00
64827;BME280;51265;53.972;12.286;2023-02-01T05:15:33;99735.00;;;3.04;100.00
64827;BME280;51265;53.972;12.286;2023-02-01T05:17:59;99746.69;;;3.05;100.00
64827;BME280;51265;53.972;12.286;2023-02-01T05:20:25;99736.38;;;3.22;100.00
64827;BME280;51265;53.972;12.286;2023-02-01T05:22:51;99737.47;;;3.31;100.00
64827;BME280;51265;53.972;12.286;2023-02-01T05:25:17;99732.56;;;3.33;100.00
64827;BME280;51265;53.972;12.286;2023-02-01T05:27:44;99720.03;;;3.32;100.00
64827;BME280;51265;53.972;12.286;2023-02-01T05:30:11;99733.09;;;3.35;100.00
64827;BME280;51265;53.972;12.286;2023-02-01T05:32:37;99723.84;;;3.41;100.00
64827;BME280;51265;53.972;12.286;2023-02-01T05:35:04;99718.94;;;3.43;100.00
64827;BME280;51265;53.972;12.286;2023-02-01T05:37:30;99733.09;;;3.50;100.00
64827;BME280;51265;53.972;12.286;2023-02-01T05:39:57;99731.47;;;3.60;100.00
64827;BME280;51265;53.972;12.286;2023-02-01T05:42:23;99715.69;;;3.52;100.00
64827;BME280;51265;53.972;12.286;2023-02-01T05:44:49;99718.63;;;3.70;100.00
64827;BME280;51265;53.972;12.286;2023-02-01T05:47:15;99707.75;;;3.65;100.00
64827;BME280;51265;53.972;12.286;2023-02-01T05:49:41;99707.47;;;3.62;100.00
64827;BME280;51265;53.972;12.286;2023-02-01T05:52:07;99704.22;;;3.60;100.00
64827;BME280;51265;53.972;12.286;2023-02-01T05:54:34;99696.63;;;3.52;100.00
64827;BME280;51265;53.972;12.286;2023-02-01T05:57:00;99693.63;;;3.53;100.00
64827;BME280;51265;53.972;12.286;2023-02-01T05:59:26;99693.63;;;3.53;100.00
64827;BME280;51265;53.972;12.286;2023-02-01T06:01:52;99697.13;;;3.59;100.00
64827;BME280;51265;53.972;12.286;2023-02-01T06:04:18;99697.16;;;3.48;100.00
64827;BME280;51265;53.972;12.286;2023-02-01T06:06:44;99696.34;;;3.38;100.00
64827;BME280;51265;53.972;12.286;2023-02-01T06:09:11;99693.91;;;3.36;100.00
64827;BME280;51265;53.972;12.286;2023-02-01T06:11:37;99692.84;;;3.27;100.00
64827;BME280;51265;53.972;12.286;2023-02-01T06:14:03;99710.25;;;3.26;100.00
64827;BME280;51265;53.972;12.286;2023-02-01T06:16:29;99697.44;;;3.21;100.00
64827;BME280;51265;53.972;12.286;2023-02-01T06:18:55;99695.56;;;3.27;100.00
64827;BME280;51265;53.972;12.286;2023-02-01T06:21:22;99700.69;;;3.34;100.00
64827;BME280;51265;53.972;12.286;2023-02-01T06:23:54;99699.06;;;3.38;100.00
64827;BME280;51265;53.972;12.286;2023-02-01T06:26:20;99697.72;;;3.35;100.00
64827;BME280;51265;53.972;12.286;2023-02-01T06:28:47;99695.00;;;3.30;100.00
64827;BME280;51265;53.972;12.286;2023-02-01T06:31:13;99696.63;;;3.31;100.00
64827;BME280;51265;53.972;12.286;2023-02-01T06:33:39;99702.06;;;3.21;100.00
64827;BME280;51265;53.972;12.286;2023-02-01T06:36:06;99689.00;;;3.13;100.00
64827;BME280;51265;53.972;12.286;2023-02-01T06:38:33;99686.84;;;2.94;100.00
64827;BME280;51265;53.972;12.286;2023-02-01T06:41:03;99677.03;;;2.88;100.00
64827;BME280;51265;53.972;12.286;2023-02-01T06:43:29;99678.97;;;2.93;100.00
64827;BME280;51265;53.972;12.286;2023-02-01T06:46:01;99691.72;;;2.87;100.00
64827;BME280;51265;53.972;12.286;2023-02-01T06:48:27;99685.19;;;2.88;100.00
64827;BME280;51265;53.972;12.286;2023-02-01T06:50:54;99689.28;;;2.96;100.00
64827;BME280;51265;53.972;12.286;2023-02-01T06:53:20;99680.84;;;2.82;100.00
64827;BME280;51265;53.972;12.286;2023-02-01T06:55:54;99677.56;;;2.75;100.00
64827;BME280;51265;53.972;12.286;2023-02-01T06:58:21;99691.72;;;2.77;100.00
64827;BME280;51265;53.972;12.286;2023-02-01T07:00:48;99692.78;;;2.71;100.00
64827;BME280;51265;53.972;12.286;2023-02-01T07:03:14;99675.94;;;2.64;100.00
64827;BME280;51265;53.972;12.286;2023-02-01T07:05:40;99698.75;;;2.58;100.00
64827;BME280;51265;53.972;12.286;2023-02-01T07:08:06;99696.84;;;2.48;100.00
64827;BME280;51265;53.972;12.286;2023-02-01T07:10:34;99710.72;;;2.52;100.00
64827;BME280;51265;53.972;12.286;2023-02-01T07:13:00;99706.38;;;2.66;100.00
64827;BME280;51265;53.972;12.286;2023-02-01T07:15:27;99702.03;;;2.65;100.00
64827;BME280;51265;53.972;12.286;2023-02-01T07:17:56;99699.31;;;2.60;100.00
64827;BME280;51265;53.972;12.286;2023-02-01T07:20:23;99693.84;;;2.49;100.00
64827;BME280;51265;53.972;12.286;2023-02-01T07:22:54;99704.19;;;2.58;100.00
64827;BME280;51265;53.972;12.286;2023-02-01T07:25:21;99702.56;;;2.57;100.00
64827;BME280;51265;53.972;12.286;2023-02-01T07:27:52;99712.34;;;2.63;100.00
64827;BME280;51265;53.972;12.286;2023-02-01T07:30:18;99708.00;;;2.57;100.00
64827;BME280;51265;53.972;12.286;2023-02-01T07:32:44;99713.44;;;2.57;100.00
64827;BME280;51265;53.972;12.286;2023-02-01T07:35:11;99696.84;;;2.63;100.00
64827;BME280;51265;53.972;12.286;2023-02-01T07:37:37;99700.69;;;2.72;100.00
64827;BME280;51265;53.972;12.286;2023-02-01T07:40:04;99698.78;;;2.78;100.00
64827;BME280;51265;53.972;12.286;2023-02-01T07:42:30;99698.25;;;2.81;100.00
64827;BME280;51265;53.972;12.286;2023-02-01T07:44:57;99702.06;;;2.80;100.00
64827;BME280;51265;53.972;12.286;2023-02-01T07:47:23;99683.56;;;2.72;100.00
64827;BME280;51265;53.972;12.286;2023-02-01T07:49:49;99686.81;;;2.74;100.00
64827;BME280;51265;53.972;12.286;2023-02-01T07:52:15;99696.06;;;2.68;100.00
64827;BME280;51265;53.972;12.286;2023-02-01T07:54:41;99699.59;;;2.68;100.00
64827;BME280;51265;53.972;12.286;2023-02-01T07:57:07;99699.88;;;2.82;100.00
64827;BME280;51265;53.972;12.286;2023-02-01T07:59:34;99710.75;;;2.87;100.00
64827;BME280;51265;53.972;12.286;2023-02-01T08:02:01;99704.22;;;2.78;100.00
64827;BME280;51265;53.972;12.286;2023-02-01T08:04:27;99705.06;;;2.94;100.00
64827;BME280;51265;53.972;12.286;2023-02-01T08:06:55;99689.56;;;2.94;100.00
64827;BME280;51265;53.972;12.286;2023-02-01T08:09:21;99694.19;;;2.89;100.00
64827;BME280;51265;53.972;12.286;2023-02-01T08:11:47;99702.09;;;3.06;100.00
64827;BME280;51265;53.972;12.286;2023-02-01T08:14:13;99697.47;;;3.01;100.00
64827;BME280;51265;53.972;12.286;2023-02-01T08:16:40;99700.97;;;2.96;100.00
64827;BME280;51265;53.972;12.286;2023-02-01T08:19:06;99684.13;;;2.99;100.00
64827;BME280;51265;53.972;12.286;2023-02-01T08:21:32;99687.13;;;2.93;100.00
64827;BME280;51265;53.972;12.286;2023-02-01T08:24:05;99699.38;;;3.06;100.00
64827;BME280;51265;53.972;12.286;2023-02-01T08:26:32;99703.72;;;3.07;100.00
64827;BME280;51265;53.972;12.286;2023-02-01T08:29:00;99694.19;;;3.19;100.00
64827;BME280;51265;53.972;12.286;2023-02-01T08:31:28;99697.19;;;3.23;100.00
64827;BME280;51265;53.972;12.286;2023-02-01T08:34:00;99683.59;;;3.23;100.00
64827;BME280;51265;53.972;12.286;2023-02-01T08:36:28;99680.31;;;3.16;100.00
64827;BME280;51265;53.972;12.286;2023-02-01T08:38:55;99682.50;;;3.19;100.00
64827;BME280;51265;53.972;12.286;2023-02-01T08:41:39;99683.03;;;3.16;100.00
64827;BME280;51265;53.972;12.286;2023-02-01T08:44:07;99692.00;;;3.16;100.00
64827;BME280;51265;53.972;12.286;2023-02-01T08:46:54;99692.00;;;3.21;100.00
64827;BME280;51265;53.972;12.286;2023-02-01T08:49:20;99702.88;;;3.21;100.00
64827;BME280;51265;53.972;12.286;2023-02-01T08:51:46;99702.63;;;3.28;100.00
64827;BME280;51265;53.972;12.286;2023-02-01T08:54:16;99692.56;;;3.23;100.00
64827;BME280;51265;53.972;12.286;2023-02-01T08:56:42;99699.06;;;3.33;100.00
64827;BME280;51265;53.972;12.286;2023-02-01T08:59:08;99705.06;;;3.30;100.00
64827;BME280;51265;53.972;12.286;2023-02-01T10:21:31;99597.44;;;1.79;100.00
64827;BME280;51265;53.972;12.286;2023-02-01T10:24:11;99631.94;;;1.79;100.00
64827;BME280;51265;53.972;12.286;2023-02-01T10:26:45;99657.97;;;1.74;100.00
64827;BME280;51265;53.972;12.286;2023-02-01T10:29:18;99668.09;;;1.84;100.00
64827;BME280;51265;53.972;12.286;2023-02-01T10:31:45;99687.13;;;1.94;100.00
64827;BME280;51265;53.972;12.286;2023-02-01T10:34:19;99701.31;;;2.12;100.00
64827;BME280;51265;53.972;12.286;2023-02-01T10:36:53;99721.00;;;2.34;100.00
64827;BME280;51265;53.972;12.286;2023-02-01T10:39:20;99727.88;;;2.72;100.00
64827;BME280;51265;53.972;12.286;2023-02-01T10:41:47;99726.00;;;3.09;100.00
64827;BME280;51265;53.972;12.286;2023-02-01T10:44:19;99734.72;;;3.41;100.00
64827;BME280;51265;53.972;12.286;2023-02-01T10:46:49;99727.06;;;3.74;100.00
64827;BME280;51265;53.972;12.286;2023-02-01T10:49:34;99720.50;;;3.80;100.00
64827;BME280;51265;53.972;12.286;2023-02-01T10:52:14;99720.75;;;3.94;100.00
64827;BME280;51265;53.972;12.286;2023-02-01T10:54:42;99731.34;;;4.06;100.00
64827;BME280;51265;53.972;12.286;2023-02-01T10:57:23;99709.75;;;4.24;100.00
64827;BME280;51265;53.972;12.286;2023-02-01T10:59:52;99699.06;;;4.33;100.00
64827;BME280;51265;53.972;12.286;2023-02-01T11:02:35;99710.75;;;4.39;100.00
64827;BME280;51265;53.972;12.286;2023-02-01T11:05:07;99695.78;;;4.36;100.00
64827;BME280;51265;53.972;12.286;2023-02-01T11:07:39;99687.72;;;4.16;100.00
64827;BME280;51265;53.972;12.286;2023-02-01T11:10:39;99684.50;;;3.98;100.00
64827;BME280;51265;53.972;12.286;2023-02-01T11:13:17;99713.44;;;3.79;100.00
64827;BME280;51265;53.972;12.286;2023-02-01T11:15:45;99683.03;;;3.36;100.00
64827;BME280;51265;53.972;12.286;2023-02-01T11:18:18;99697.16;;;3.13;100.00
64827;BME280;51265;53.972;12.286;2023-02-01T11:20:46;99685.22;;;3.14;100.00
64827;BME280;51265;53.972;12.286;2023-02-01T11:23:19;99695.53;;;3.17;100.00
64827;BME280;51265;53.972;12.286;2023-02-01T11:25:52;99697.16;;;3.38;100.00
64827;BME280;51265;53.972;12.286;2023-02-01T11:28:23;99703.66;;;3.63;100.00
64827;BME280;51265;53.972;12.286;2023-02-01T11:30:53;99694.94;;;3.71;100.00
64827;BME280;51265;53.972;12.286;2023-02-01T11:33:24;99710.38;;;3.96;100.00
64827;BME280;51265;53.972;12.286;2023-02-01T11:35:53;99704.63;;;4.08;100.00
64827;BME280;51265;53.972;12.286;2023-02-01T11:40:48;99699.38;;;4.21;100.00
64827;BME280;51265;53.972;12.286;2023-02-01T11:43:27;99702.06;;;4.37;100.00
64827;BME280;51265;53.972;12.286;2023-02-01T11:45:59;99701.25;;;4.36;100.00
64827;BME280;51265;53.972;12.286;2023-02-01T11:48:27;99702.00;;;4.52;100.00
64827;BME280;51265;53.972;12.286;2023-02-01T11:54:02;99685.69;;;4.86;100.00
64827;BME280;51265;53.972;12.286;2023-02-01T11:59:25;99668.75;;;4.89;100.00
64827;BME280;51265;53.972;12.286;2023-02-01T12:02:19;99654.19;;;4.99;100.00
64827;BME280;51265;53.972;12.286;2023-02-01T12:19:04;99568.03;;;3.70;100.00
64827;BME280;51265;53.972;12.286;2023-02-01T12:34:56;99569.75;;;3.56;100.00
64827;BME280;51265;53.972;12.286;2023-02-01T12:40:55;99562.88;;;4.18;100.00
64827;BME280;51265;53.972;12.286;2023-02-01T12:45:59;99545.91;;;4.65;100.00
64827;BME280;51265;53.972;12.286;2023-02-01T12:48:37;99542.00;;;5.00;100.00
64827;BME280;51265;53.972;12.286;2023-02-01T12:51:17;99549.25;;;5.39;100.00
64827;BME280;51265;53.972;12.286;2023-02-01T12:54:01;99545.63;;;5.68;100.00
64827;BME280;51265;53.972;12.286;2023-02-01T12:56:40;99527.50;;;5.77;100.00
64827;BME280;51265;53.972;12.286;2023-02-01T12:59:30;99513.19;;;5.85;100.00
64827;BME280;51265;53.972;12.286;2023-02-01T13:02:06;99503.09;;;5.62;100.00
64827;BME280;51265;53.972;12.286;2023-02-01T13:04:50;99486.81;;;5.52;100.00
64827;BME280;51265;53.972;12.286;2023-02-01T13:07:23;99468.00;;;5.31;100.00
64827;BME280;51265;53.972;12.286;2023-02-01T13:09:59;99470.94;;;5.35;100.00
64827;BME280;51265;53.972;12.286;2023-02-01T13:12:37;99471.56;;;5.27;100.00
64827;BME280;51265;53.972;12.286;2023-02-01T13:15:13;99461.66;;;5.36;100.00
64827;BME280;51265;53.972;12.286;2023-02-01T13:17:43;99449.63;;;5.37;100.00
64827;BME280;51265;53.972;12.286;2023-02-01T13:20:38;99455.28;;;4.97;100.00
64827;BME280;51265;53.972;12.286;2023-02-01T13:23:21;99458.19;;;4.82;100.00
64827;BME280;51265;53.972;12.286;2023-02-01T13:25:51;99448.63;;;4.56;100.00
64827;BME280;51265;53.972;12.286;2023-02-01T13:31:17;99479.34;;;4.66;100.00
64827;BME280;51265;53.972;12.286;2023-02-01T13:37:17;99473.06;;;4.66;100.00
64827;BME280;51265;53.972;12.286;2023-02-01T13:42:46;99455.72;;;4.57;100.00
64827;BME280;51265;53.972;12.286;2023-02-01T13:45:16;99467.75;;;4.50;100.00
64827;BME280;51265;53.972;12.286;2023-02-01T13:47:46;99512.03;;;4.37;100.00
64827;BME280;51265;53.972;12.286;2023-02-01T13:50:21;99469.34;;;1.92;100.00
64827;BME280;51265;53.972;12.286;2023-02-01T13:52:57;99476.84;;;0.07;100.00
64827;BME280;51265;53.972;12.286;2023-02-01T13:55:34;99504.94;;;-0.26;100.00
64827;BME280;51265;53.972;12.286;2023-02-01T13:58:28;99543.72;;;-0.42;100.00
64827;BME280;51265;53.972;12.286;2023-02-01T14:03:45;99584.88;;;-0.40;100.00
64827;BME280;51265;53.972;12.286;2023-02-01T14:09:18;99586.53;;;-0.39;100.00
64827;BME280;51265;53.972;12.286;2023-02-01T14:11:48;99583.53;;;-0.38;100.00
64827;BME280;51265;53.972;12.286;2023-02-01T14:16:41;99597.22;;;-0.28;100.00
64827;BME280;51265;53.972;12.286;2023-02-01T14:19:30;99600.78;;;-0.22;100.00
64827;BME280;51265;53.972;12.286;2023-02-01T14:24:41;99607.38;;;-0.13;100.00
64827;BME280;51265;53.972;12.286;2023-02-01T14:29:49;99629.50;;;0.01;100.00
64827;BME280;51265;53.972;12.286;2023-02-01T14:32:20;99631.97;;;0.08;100.00
64827;BME280;51265;53.972;12.286;2023-02-01T14:42:22;99638.94;;;0.53;100.00
64827;BME280;51265;53.972;12.286;2023-02-01T14:44:53;99623.34;;;0.65;100.00
64827;BME280;51265;53.972;12.286;2023-02-01T14:49:55;99616.47;;;0.84;100.00
64827;BME280;51265;53.972;12.286;2023-02-01T14:52:29;99624.13;;;0.92;100.00
64827;BME280;51265;53.972;12.286;2023-02-01T14:55:04;99632.88;;;1.05;100.00
64827;BME280;51265;53.972;12.286;2023-02-01T14:57:35;99630.19;;;1.05;100.00
64827;BME280;51265;53.972;12.286;2023-02-01T15:00:23;99641.06;;;1.10;100.00
64827;BME280;51265;53.972;12.286;2023-02-01T15:02:51;99647.56;;;1.09;100.00
64827;BME280;51265;53.972;12.286;2023-02-01T15:08:05;99659.16;;;1.04;100.00
64827;BME280;51265;53.972;12.286;2023-02-01T15:10:42;99650.78;;;1.06;100.00
64827;BME280;51265;53.972;12.286;2023-02-01T15:13:20;99653.53;;;1.11;100.00
64827;BME280;51265;53.972;12.286;2023-02-01T15:16:04;99653.53;;;1.11;100.00
64827;BME280;51265;53.972;12.286;2023-02-01T15:18:31;99648.47;;;1.24;100.00
64827;BME280;51265;53.972;12.286;2023-02-01T15:21:00;99653.06;;;1.24;100.00
64827;BME280;51265;53.972;12.286;2023-02-01T15:23:27;99649.03;;;1.27;100.00
64827;BME280;51265;53.972;12.286;2023-02-01T15:25:54;99651.50;;;1.33;100.00
64827;BME280;51265;53.972;12.286;2023-02-01T15:28:21;99652.88;;;1.36;100.00
64827;BME280;51265;53.972;12.286;2023-02-01T15:31:03;99656.41;;;1.36;100.00
64827;BME280;51265;53.972;12.286;2023-02-01T15:33:30;99657.75;;;1.34;100.00
64827;BME280;51265;53.972;12.286;2023-02-01T15:36:16;99658.59;;;1.34;100.00
64827;BME280;51265;53.972;12.286;2023-02-01T15:38:44;99672.69;;;1.36;100.00
64827;BME280;51265;53.972;12.286;2023-02-01T15:41:18;99675.97;;;1.38;100.00
64827;BME280;51265;53.972;12.286;2023-02-01T15:46:34;99685.75;;;1.39;100.00
64827;BME280;51265;53.972;12.286;2023-02-01T15:49:02;99692.25;;;1.38;100.00
64827;BME280;51265;53.972;12.286;2023-02-01T15:51:30;99680.63;;;1.43;100.00
64827;BME280;51265;53.972;12.286;2023-02-01T15:54:01;99691.19;;;1.44;100.00
64827;BME280;51265;53.972;12.286;2023-02-01T15:56:33;99687.94;;;1.42;100.00
64827;BME280;51265;53.972;12.286;2023-02-01T15:59:02;99695.50;;;1.40;100.00
64827;BME280;51265;53.972;12.286;2023-02-01T16:01:29;99687.03;;;1.32;100.00
64827;BME280;51265;53.972;12.286;2023-02-01T16:04:05;99680.16;;;1.19;100.00
64827;BME280;51265;53.972;12.286;2023-02-01T16:06:45;99679.91;;;1.20;100.00